Time;durP1;ratioP1;P1;durP2;ratioP2;P2;SDS_P1;SDS_P2;PMS_P1;PMS_P2;Temp;Humidity;BMP_temperature;BMP_pressure;BME280_temperature;BME280_humidity;BME280_pressure;Samples;Min_cycle;Max_cycle;Signal;HPM_P1;HPM_P2
2022/04/19 00:01:38;;;;;;;3.42;1.90;;;23.20;70.30;;;;;;4176155;28;20048;-55
2022/04/19 00:03:40;;;;;;;11.20;1.87;;;23.20;70.30;;;;;;4178827;28;20079;-53
2022/04/19 00:05:43;;;;;;;10.55;1.23;;;23.30;70.20;;;;;;4177814;28;20308;-57
2022/04/19 00:07:46;;;;;;;3.75;1.42;;;23.30;70.20;;;;;;4163906;28;20177;-58
2022/04/19 00:09:48;;;;;;;4.63;1.38;;;23.30;70.30;;;;;;4186243;28;20051;-56
2022/04/19 00:11:51;;;;;;;5.35;1.23;;;23.30;70.10;;;;;;4159639;28;20654;-55
2022/04/19 00:13:54;;;;;;;4.22;1.42;;;23.30;70.10;;;;;;4167000;28;20148;-54
2022/04/19 00:15:57;;;;;;;4.83;1.83;;;23.40;70.10;;;;;;4162674;28;20807;-53
2022/04/19 00:18:02;;;;;;;2.30;1.30;;;23.40;70.10;;;;;;4177263;28;20052;-49
2022/04/19 00:20:06;;;;;;;2.97;1.25;;;23.40;70.00;;;;;;4177523;28;20110;-48
2022/04/19 00:22:08;;;;;;;3.63;1.65;;;23.40;70.00;;;;;;4177596;28;20056;-54
2022/04/19 00:24:10;;;;;;;3.55;1.60;;;23.50;70.10;;;;;;4171550;28;20055;-49
2022/04/19 00:26:12;;;;;;;6.43;1.48;;;23.50;69.80;;;;;;4172178;28;20298;-51
2022/04/19 00:28:15;;;;;;;8.13;2.00;;;23.50;69.00;;;;;;4179400;28;20052;-54
2022/04/19 00:30:18;;;;;;;5.43;2.22;;;23.50;68.60;;;;;;4177376;28;20056;-56
2022/04/19 00:32:20;;;;;;;4.77;1.87;;;23.50;69.50;;;;;;4179562;28;20621;-57
2022/04/19 00:34:22;;;;;;;3.05;1.60;;;23.50;69.20;;;;;;4182029;28;20355;-56
2022/04/19 00:36:26;;;;;;;4.03;1.70;;;23.50;69.50;;;;;;4182739;28;20155;-58
2022/04/19 00:38:28;;;;;;;3.15;1.55;;;23.50;69.60;;;;;;4179736;28;20060;-58
2022/04/19 00:40:30;;;;;;;6.22;2.08;;;23.50;69.70;;;;;;4177572;28;20048;-56
2022/04/19 00:42:34;;;;;;;3.15;1.52;;;23.50;69.70;;;;;;4185481;28;20160;-58
2022/04/19 00:44:39;;;;;;;4.28;1.52;;;23.50;69.70;;;;;;4179949;28;20044;-54
2022/04/19 00:46:41;;;;;;;3.15;1.30;;;23.60;69.80;;;;;;4178960;28;20575;-59
2022/04/19 00:48:43;;;;;;;2.55;0.95;;;23.60;69.80;;;;;;4177220;28;20056;-56
2022/04/19 00:50:47;;;;;;;2.50;1.13;;;23.60;69.70;;;;;;4165170;28;20554;-57
2022/04/19 00:52:50;;;;;;;1.20;1.10;;;23.60;69.70;;;;;;4160859;28;20104;-53
2022/04/19 00:54:52;;;;;;;1.50;1.35;;;23.60;69.70;;;;;;4188969;28;20075;-57
2022/04/19 00:56:55;;;;;;;7.25;1.50;;;23.70;69.70;;;;;;4179376;28;20049;-56
2022/04/19 00:58:57;;;;;;;4.07;1.40;;;23.70;69.70;;;;;;4178292;28;20421;-54
2022/04/19 01:01:01;;;;;;;2.65;1.15;;;23.70;69.60;;;;;;4178348;28;20289;-54
2022/04/19 01:03:03;;;;;;;2.38;1.10;;;23.80;69.60;;;;;;4160517;28;20080;-57
2022/04/19 01:05:06;;;;;;;3.58;1.23;;;23.80;69.60;;;;;;4161048;28;20053;-54
2022/04/19 01:07:10;;;;;;;1.98;0.93;;;23.80;69.60;;;;;;4160605;28;20055;-56
2022/04/19 01:09:13;;;;;;;4.00;1.40;;;23.80;69.50;;;;;;4177743;28;20051;-54
2022/04/19 01:13:36;;;;;;;1.95;1.05;;;23.90;69.60;;;;;;4176259;28;20157;-55
2022/04/19 01:15:41;;;;;;;1.20;0.90;;;23.80;69.50;;;;;;4178564;28;20581;-56
2022/04/19 01:17:46;;;;;;;1.67;0.82;;;23.90;69.50;;;;;;4178434;28;20481;-56
2022/04/19 01:19:49;;;;;;;2.20;1.00;;;23.90;69.50;;;;;;4177070;28;20139;-54
2022/04/19 01:21:54;;;;;;;2.45;1.13;;;23.90;69.50;;;;;;4179624;28;20085;-54
2022/04/19 01:23:56;;;;;;;2.88;0.90;;;23.90;69.50;;;;;;4178366;28;20090;-55
2022/04/19 01:25:58;;;;;;;2.13;1.02;;;24.00;69.40;;;;;;4186800;28;20049;-60
2022/04/19 01:28:00;;;;;;;18.98;1.52;;;24.00;69.10;;;;;;4180824;28;20714;-54
2022/04/19 01:30:08;;;;;;;3.67;1.45;;;24.00;68.90;;;;;;4181111;28;20123;-58
2022/04/19 01:32:13;;;;;;;3.42;1.00;;;24.00;69.00;;;;;;4178970;28;20044;-51
2022/04/19 01:34:15;;;;;;;3.60;1.05;;;24.10;68.90;;;;;;4177174;28;20087;-57
2022/04/19 01:36:17;;;;;;;1.88;0.90;;;24.10;69.00;;;;;;4187630;28;20068;-57
2022/04/19 01:38:20;;;;;;;2.58;1.10;;;24.10;69.00;;;;;;4187134;28;20154;-59
2022/04/19 01:40:22;;;;;;;1.52;0.90;;;24.10;68.90;;;;;;4180192;28;20056;-61
2022/04/19 01:42:24;;;;;;;2.70;1.00;;;24.20;69.00;;;;;;4179291;28;20052;-59
2022/04/19 01:44:27;;;;;;;9.57;1.70;;;24.20;68.90;;;;;;4180033;28;20060;-60
2022/04/19 01:46:31;;;;;;;1.40;0.90;;;24.20;68.80;;;;;;4180019;28;20408;-53
2022/04/19 01:48:33;;;;;;;1.13;0.90;;;24.20;68.80;;;;;;4180813;28;20157;-59
2022/04/19 01:50:39;;;;;;;2.67;0.88;;;24.20;68.80;;;;;;4163000;28;20041;-57
2022/04/19 01:52:42;;;;;;;1.70;1.10;;;24.30;68.80;;;;;;4192303;28;20054;-56
2022/04/19 01:54:44;;;;;;;1.75;1.15;;;24.30;68.70;;;;;;4180878;28;20060;-57
2022/04/19 01:56:47;;;;;;;1.88;1.15;;;24.30;68.60;;;;;;4180484;28;20538;-56
2022/04/19 01:58:49;;;;;;;1.10;0.80;;;24.30;68.60;;;;;;4181488;28;20063;-57
2022/04/19 02:00:51;;;;;;;1.40;1.00;;;24.40;68.60;;;;;;4183407;28;20079;-58
2022/04/19 02:02:55;;;;;;;2.50;1.17;;;24.40;68.50;;;;;;4185282;28;20068;-59
2022/04/19 02:04:58;;;;;;;1.00;0.90;;;24.40;68.50;;;;;;4166568;28;20522;-56
2022/04/19 02:07:00;;;;;;;1.55;1.00;;;24.40;68.50;;;;;;4183832;28;20218;-60
2022/04/19 02:09:03;;;;;;;2.85;0.90;;;24.40;68.50;;;;;;4177352;28;20048;-55
2022/04/19 02:11:05;;;;;;;1.30;0.90;;;24.40;68.50;;;;;;4183110;28;20051;-59
2022/04/19 02:13:07;;;;;;;2.00;0.90;;;24.50;68.50;;;;;;4189604;28;20048;-52
2022/04/19 02:15:11;;;;;;;2.00;1.00;;;24.50;68.50;;;;;;4177108;28;20150;-59
2022/04/19 02:17:13;;;;;;;1.17;0.93;;;24.50;68.50;;;;;;4174287;28;20465;-56
2022/04/19 02:19:15;;;;;;;0.70;0.70;;;24.50;68.40;;;;;;4175823;28;20067;-56
2022/04/19 02:21:17;;;;;;;1.67;0.60;;;24.60;68.40;;;;;;4173840;28;20059;-55
2022/04/19 02:23:20;;;;;;;1.55;0.85;;;24.60;68.40;;;;;;4175831;28;20481;-58
2022/04/19 02:25:24;;;;;;;0.52;0.52;;;24.60;68.30;;;;;;4175016;28;20071;-59
2022/04/19 02:27:28;;;;;;;0.60;0.60;;;24.60;68.10;;;;;;4171621;28;20064;-53
2022/04/19 02:29:30;;;;;;;1.00;0.88;;;24.70;68.20;;;;;;4172636;28;20664;-57
2022/04/19 02:31:32;;;;;;;0.82;0.73;;;24.60;68.00;;;;;;4175827;28;20075;-53
2022/04/19 02:33:34;;;;;;;1.05;0.77;;;24.70;67.90;;;;;;4175399;28;20059;-52
2022/04/19 02:35:37;;;;;;;1.58;0.82;;;24.70;67.80;;;;;;4178464;28;20044;-53
2022/04/19 02:37:47;;;;;;;0.93;0.80;;;24.70;67.70;;;;;;4162940;28;20064;-53
2022/04/19 02:39:50;;;;;;;1.17;0.80;;;24.70;67.60;;;;;;4173808;28;20064;-56
2022/04/19 02:41:53;;;;;;;0.80;0.60;;;24.70;67.50;;;;;;4175857;28;20525;-55
2022/04/19 02:43:56;;;;;;;0.80;0.77;;;24.70;67.40;;;;;;4173078;28;20041;-58
2022/04/19 02:45:58;;;;;;;1.80;0.80;;;24.70;67.30;;;;;;4172341;28;20049;-54
2022/04/19 02:48:05;;;;;;;1.08;0.70;;;24.80;67.30;;;;;;4172930;28;20044;-54
2022/04/19 02:50:08;;;;;;;0.70;0.70;;;24.80;67.90;;;;;;4173854;28;20781;-52
2022/04/19 02:52:10;;;;;;;1.33;0.73;;;24.80;67.30;;;;;;4170581;28;20826;-53
2022/04/19 02:54:12;;;;;;;0.90;0.80;;;24.80;67.20;;;;;;4175725;28;20265;-57
2022/04/19 02:56:14;;;;;;;2.40;0.80;;;24.80;67.80;;;;;;4176336;28;20064;-56
2022/04/19 02:58:17;;;;;;;2.55;0.60;;;24.80;67.20;;;;;;4183614;28;20064;-55
2022/04/19 03:00:20;;;;;;;2.38;0.60;;;24.90;67.40;;;;;;4178414;28;20060;-56
2022/04/19 03:02:22;;;;;;;0.55;0.50;;;24.90;67.40;;;;;;4174886;28;20509;-57
2022/04/19 03:04:24;;;;;;;1.00;0.65;;;24.90;67.40;;;;;;4176501;28;20164;-53
2022/04/19 03:06:26;;;;;;;2.08;0.50;;;24.90;67.50;;;;;;4188169;28;20083;-58
2022/04/19 03:08:28;;;;;;;0.52;0.50;;;24.90;67.60;;;;;;4173462;28;20547;-57
2022/04/19 03:10:30;;;;;;;0.63;0.55;;;25.00;67.60;;;;;;4174247;28;20092;-56
2022/04/19 03:12:32;;;;;;;1.38;1.02;;;25.10;67.60;;;;;;4180575;28;20052;-54
2022/04/19 03:14:35;;;;;;;1.27;1.00;;;25.10;67.30;;;;;;4168072;28;20263;-57
2022/04/19 03:16:37;;;;;;;2.23;1.10;;;25.10;67.20;;;;;;4169369;28;20175;-56
2022/04/19 03:18:41;;;;;;;1.70;1.15;;;25.10;67.20;;;;;;4172028;28;20045;-54
2022/04/19 03:20:45;;;;;;;1.52;1.10;;;25.10;67.00;;;;;;4174288;28;20056;-54
2022/04/19 03:27:43;;;;;;;2.20;1.35;;;25.10;66.80;;;;;;4174879;28;20183;-56
2022/04/19 03:29:45;;;;;;;2.35;1.70;;;25.20;66.90;;;;;;4175455;28;20056;-55
2022/04/19 03:31:48;;;;;;;2.30;1.40;;;25.10;66.80;;;;;;4173189;28;20052;-57
2022/04/19 03:33:53;;;;;;;2.78;1.63;;;25.20;66.80;;;;;;4173323;28;20067;-55
2022/04/19 03:35:56;;;;;;;2.10;1.60;;;25.20;66.80;;;;;;4175648;28;20070;-55
2022/04/19 03:37:58;;;;;;;2.50;1.70;;;25.30;66.70;;;;;;4175287;28;20641;-56
2022/04/19 03:40:00;;;;;;;2.17;1.63;;;25.30;66.50;;;;;;4178620;28;20344;-56
2022/04/19 03:42:02;;;;;;;2.67;2.20;;;25.30;66.40;;;;;;4182413;28;20052;-52
2022/04/19 03:44:05;;;;;;;2.28;1.80;;;25.40;66.40;;;;;;4184966;28;20091;-53
2022/04/19 03:46:10;;;;;;;2.45;1.73;;;25.40;66.20;;;;;;4184333;28;20202;-57
2022/04/19 03:48:16;;;;;;;2.50;2.00;;;25.50;66.10;;;;;;4164053;28;20072;-57
2022/04/19 03:50:19;;;;;;;2.83;1.90;;;25.50;66.00;;;;;;4188623;28;20139;-59
2022/04/19 03:52:21;;;;;;;2.92;2.28;;;25.50;65.80;;;;;;4185272;28;20830;-55
2022/04/19 03:54:23;;;;;;;5.10;3.80;;;25.60;65.80;;;;;;4176782;28;20123;-57
2022/04/19 03:56:26;;;;;;;7.60;4.70;;;25.60;65.90;;;;;;4178962;28;20044;-58
2022/04/19 03:58:30;;;;;;;7.03;5.07;;;25.70;66.00;;;;;;4186917;28;20372;-56
2022/04/19 04:00:32;;;;;;;11.27;5.88;;;25.70;65.90;;;;;;4166918;28;20053;-58
2022/04/19 04:02:35;;;;;;;12.50;6.10;;;25.70;66.00;;;;;;4180585;28;20519;-58
2022/04/19 04:04:38;;;;;;;9.88;6.97;;;25.80;66.00;;;;;;4180203;28;20075;-55
2022/04/19 04:06:40;;;;;;;;;;;25.90;66.00;;;;;;4171302;28;20052;-49
2022/04/19 04:08:42;;;;;;;14.35;7.80;;;26.00;66.00;;;;;;4178690;28;19928;-56
2022/04/19 04:10:44;;;;;;;9.80;8.17;;;26.00;65.70;;;;;;4176158;28;20503;-59
2022/04/19 04:12:46;;;;;;;12.93;9.93;;;26.10;65.60;;;;;;4174125;28;20052;-53
2022/04/19 04:14:49;;;;;;;19.52;11.02;;;26.20;65.60;;;;;;4174963;28;20079;-55
2022/04/19 04:16:51;;;;;;;19.10;11.90;;;26.30;65.70;;;;;;4170447;28;20053;-58
2022/04/19 04:18:53;;;;;;;19.38;11.68;;;26.30;65.70;;;;;;4169060;28;20398;-55
2022/04/19 04:20:55;;;;;;;16.48;13.30;;;26.30;65.80;;;;;;4167772;28;20840;-56
2022/04/19 04:22:57;;;;;;;20.52;14.00;;;26.30;65.80;;;;;;4166952;28;20924;-57
2022/04/19 04:24:59;;;;;;;14.93;12.50;;;26.30;65.90;;;;;;4166727;28;20056;-56
2022/04/19 04:27:02;;;;;;;19.33;13.80;;;26.30;65.90;;;;;;4168431;28;20301;-57
2022/04/19 04:29:04;;;;;;;16.53;13.70;;;26.40;65.80;;;;;;4168850;28;20095;-53
2022/04/19 04:31:06;;;;;;;16.77;13.07;;;26.50;65.70;;;;;;4171559;28;20301;-57
2022/04/19 04:33:08;;;;;;;15.88;13.77;;;26.60;65.60;;;;;;4170887;28;20086;-60
2022/04/19 04:35:11;;;;;;;15.40;13.00;;;26.70;65.50;;;;;;4157267;28;20089;-55
2022/04/19 04:37:13;;;;;;;18.17;13.45;;;26.70;65.30;;;;;;4173219;28;20143;-56
2022/04/19 04:39:15;;;;;;;16.63;12.98;;;26.80;65.20;;;;;;4172188;28;20846;-59
2022/04/19 04:41:17;;;;;;;17.27;12.80;;;26.80;65.20;;;;;;4175859;28;20049;-53
2022/04/19 04:43:20;;;;;;;15.05;12.15;;;26.80;65.30;;;;;;4173951;28;20056;-52
2022/04/19 04:45:22;;;;;;;15.97;13.27;;;26.80;65.30;;;;;;4192209;28;20052;-52
2022/04/19 04:49:44;;;;;;;15.23;12.32;;;26.80;65.50;;;;;;4184690;28;20080;-58
2022/04/19 04:51:46;;;;;;;18.57;12.23;;;26.90;65.40;;;;;;4185930;28;20082;-58
2022/04/19 04:53:48;;;;;;;14.07;10.97;;;27.00;65.30;;;;;;4169671;28;20049;-56
2022/04/19 04:55:51;;;;;;;13.20;11.15;;;27.10;65.10;;;;;;4175720;28;20238;-58
2022/04/19 04:57:57;;;;;;;12.88;9.82;;;27.20;64.90;;;;;;4149038;28;20049;-55
2022/04/19 04:59:59;;;;;;;11.55;9.70;;;27.30;64.80;;;;;;4176729;28;20073;-52
2022/04/19 05:02:03;;;;;;;16.17;9.20;;;27.40;64.50;;;;;;4175783;28;20053;-50
2022/04/19 05:04:05;;;;;;;11.82;9.27;;;27.50;64.30;;;;;;4175972;28;20426;-53
2022/04/19 05:06:07;;;;;;;11.30;8.80;;;27.70;64.20;;;;;;4175694;28;20432;-54
2022/04/19 05:08:12;;;;;;;9.77;7.95;;;27.70;64.00;;;;;;4158267;28;20509;-59
2022/04/19 05:10:14;;;;;;;8.90;7.13;;;27.80;63.80;;;;;;4176168;28;20087;-55
2022/04/19 05:12:16;;;;;;;10.50;7.80;;;27.80;63.70;;;;;;4177381;28;20060;-54
2022/04/19 05:14:18;;;;;;;8.50;6.97;;;28.00;63.60;;;;;;4176365;28;20052;-53
2022/04/19 05:16:20;;;;;;;8.27;6.68;;;28.00;63.50;;;;;;4175771;28;20044;-52
2022/04/19 05:18:23;;;;;;;9.02;6.07;;;28.10;63.40;;;;;;4179523;28;20369;-57
2022/04/19 05:20:25;;;;;;;8.40;5.83;;;28.10;63.10;;;;;;4181169;28;20053;-50
2022/04/19 05:22:27;;;;;;;8.77;6.50;;;28.20;63.00;;;;;;4166116;28;20152;-47
2022/04/19 05:24:29;;;;;;;10.35;5.88;;;28.20;63.00;;;;;;4167170;28;20521;-51
2022/04/19 05:26:31;;;;;;;14.77;6.40;;;28.20;63.00;;;;;;4167026;28;20208;-53
2022/04/19 05:28:34;;;;;;;11.38;6.80;;;28.20;63.10;;;;;;4165881;28;20096;-59
2022/04/19 05:30:36;;;;;;;11.38;5.60;;;28.20;63.20;;;;;;4170492;28;20107;-56
2022/04/19 05:32:38;;;;;;;9.00;5.20;;;28.20;63.30;;;;;;4170294;28;20068;-57
2022/04/19 05:34:40;;;;;;;6.50;5.10;;;28.20;63.40;;;;;;4147193;28;20057;-57
2022/04/19 05:36:42;;;;;;;9.97;5.43;;;28.10;63.30;;;;;;4167165;28;20040;-56
2022/04/19 05:38:44;;;;;;;9.77;4.90;;;28.10;63.50;;;;;;4166662;28;20056;-60
2022/04/19 05:40:47;;;;;;;11.53;4.47;;;28.10;63.70;;;;;;4166338;28;20520;-60
2022/04/19 05:42:49;;;;;;;10.77;4.60;;;28.00;63.70;;;;;;4149471;28;20055;-58
2022/04/19 05:44:51;;;;;;;11.57;4.00;;;28.00;63.90;;;;;;4166241;28;20175;-59
2022/04/19 05:46:53;;;;;;;10.85;4.40;;;28.00;64.00;;;;;;4167769;28;21029;-59
2022/04/19 05:48:56;;;;;;;6.17;3.57;;;28.00;64.00;;;;;;4156572;28;20759;-59
2022/04/19 05:50:58;;;;;;;8.73;3.70;;;28.00;64.00;;;;;;4164554;28;20601;-59
2022/04/19 05:53:00;;;;;;;7.00;3.42;;;28.00;64.00;;;;;;4163720;28;20755;-58
2022/04/19 05:55:03;;;;;;;5.47;3.37;;;28.00;64.10;;;;;;4166305;28;20048;-59
2022/04/19 05:57:06;;;;;;;6.40;3.30;;;28.00;64.10;;;;;;4157121;28;20542;-59
2022/04/19 05:59:09;;;;;;;4.45;3.25;;;28.00;64.30;;;;;;4167581;28;20044;-58
2022/04/19 06:01:11;;;;;;;4.00;2.80;;;28.00;64.20;;;;;;4167452;28;20056;-58
2022/04/19 06:05:34;;;;;;;4.68;3.05;;;27.90;64.20;;;;;;4164876;28;20052;-58
2022/04/19 06:07:42;;;;;;;;;;;28.00;64.30;;;;;;4158521;28;20060;-59
2022/04/19 06:09:44;;;;;;;6.85;2.67;;;27.90;64.50;;;;;;4183132;28;20023;-58
2022/04/19 06:11:47;;;;;;;5.35;2.95;;;27.90;64.50;;;;;;4166328;28;20117;-58
2022/04/19 06:13:49;;;;;;;3.87;2.50;;;27.90;64.60;;;;;;4145167;28;20568;-58
2022/04/19 06:15:51;;;;;;;19.63;2.93;;;27.90;65.30;;;;;;4165993;28;20187;-58
2022/04/19 06:17:53;;;;;;;6.70;2.55;;;27.90;64.70;;;;;;4164445;28;20312;-51
2022/04/19 06:19:55;;;;;;;6.20;2.72;;;27.90;64.80;;;;;;4161617;28;20171;-56
2022/04/19 06:21:58;;;;;;;4.60;2.35;;;27.90;64.80;;;;;;4159127;28;20048;-54
2022/04/19 06:24:03;;;;;;;12.45;2.50;;;27.90;64.90;;;;;;4163272;28;20048;-59
2022/04/19 06:26:05;;;;;;;3.40;1.80;;;27.90;64.90;;;;;;4166380;28;20083;-58
2022/04/19 06:28:07;;;;;;;12.80;2.37;;;27.90;64.70;;;;;;4166597;28;20462;-58
2022/04/19 06:30:10;;;;;;;7.17;2.63;;;27.90;64.60;;;;;;4164296;28;20187;-56
2022/04/19 06:32:13;;;;;;;3.80;2.15;;;27.90;64.80;;;;;;4165406;28;20531;-57
2022/04/19 06:34:16;;;;;;;;;;;27.90;65.00;;;;;;4167688;28;20056;-59
2022/04/19 06:36:18;;;;;;;5.10;2.00;;;27.90;65.10;;;;;;4178435;28;19924;-56
2022/04/19 06:38:20;;;;;;;4.63;2.15;;;27.90;65.40;;;;;;4162470;28;20107;-58
2022/04/19 06:40:22;;;;;;;3.47;2.20;;;28.00;65.60;;;;;;4157209;28;20111;-57
2022/04/19 06:42:25;;;;;;;4.38;1.70;;;28.00;65.50;;;;;;4166528;28;20045;-55
2022/04/19 06:44:27;;;;;;;4.03;1.80;;;27.90;65.40;;;;;;4180716;28;20452;-53
2022/04/19 06:46:29;;;;;;;4.77;1.60;;;28.00;65.40;;;;;;4164093;28;20823;-56
2022/04/19 06:48:34;;;;;;;4.65;1.52;;;28.00;65.30;;;;;;4167992;28;20305;-57
2022/04/19 06:50:37;;;;;;;3.25;1.50;;;28.00;65.40;;;;;;4151427;28;20052;-55
2022/04/19 06:52:39;;;;;;;2.90;1.40;;;28.00;65.50;;;;;;4167210;28;20464;-55
2022/04/19 06:54:41;;;;;;;2.80;1.30;;;28.00;65.40;;;;;;4182020;28;20721;-54
2022/04/19 06:56:46;;;;;;;3.00;1.20;;;28.00;65.30;;;;;;4168738;28;20504;-56
2022/04/19 06:58:49;;;;;;;3.22;1.33;;;28.00;65.30;;;;;;4167894;28;20313;-55
2022/04/19 07:00:51;;;;;;;3.30;1.38;;;28.00;65.40;;;;;;4166746;28;20764;-56
2022/04/19 07:02:53;;;;;;;1.85;1.30;;;28.00;65.40;;;;;;4168183;28;20404;-55
2022/04/19 07:04:56;;;;;;;5.47;1.50;;;28.00;65.40;;;;;;4169993;28;20052;-52
2022/04/19 07:06:58;;;;;;;1.50;1.13;;;28.00;65.40;;;;;;4171094;28;21191;-57
2022/04/19 07:09:01;;;;;;;1.70;1.02;;;28.00;65.50;;;;;;4169479;28;20147;-58
2022/04/19 07:11:03;;;;;;;3.65;1.52;;;28.00;65.60;;;;;;4172916;28;20155;-55
2022/04/19 07:13:06;;;;;;;1.73;1.23;;;28.00;65.50;;;;;;4168732;28;20143;-56
2022/04/19 07:15:09;;;;;;;4.63;1.58;;;28.00;65.50;;;;;;4170566;28;20932;-57
2022/04/19 07:17:12;;;;;;;4.03;1.47;;;27.90;65.40;;;;;;4170777;28;20049;-58
2022/04/19 07:19:14;;;;;;;4.85;1.13;;;27.90;65.40;;;;;;4170279;28;20393;-59
2022/04/19 07:28:17;;;;;;;2.83;1.25;;;28.00;66.00;;;;;;4173453;28;20055;-58
2022/04/19 07:30:19;;;;;;;1.98;1.40;;;28.00;65.90;;;;;;4182116;28;20052;-56
2022/04/19 07:32:22;;;;;;;3.20;1.58;;;27.90;65.90;;;;;;4174133;28;20057;-56
2022/04/19 07:34:24;;;;;;;;;;;28.00;65.90;;;;;;4181256;28;20056;-54
2022/04/19 07:36:26;;;;;;;2.05;1.23;;;28.00;65.90;;;;;;4182941;28;19939;-57
2022/04/19 07:38:28;;;;;;;9.13;1.30;;;28.00;65.90;;;;;;4172823;28;20112;-57
2022/04/19 07:40:31;;;;;;;2.47;1.27;;;28.00;65.90;;;;;;4171557;28;20061;-57
2022/04/19 07:42:33;;;;;;;3.10;1.45;;;27.90;65.80;;;;;;4164089;28;20293;-55
2022/04/19 07:44:36;;;;;;;2.80;1.48;;;28.00;66.00;;;;;;4155652;28;20045;-55
2022/04/19 07:46:39;;;;;;;2.38;1.10;;;28.00;66.10;;;;;;4167345;28;20705;-57
2022/04/19 07:48:44;;;;;;;2.72;1.10;;;27.90;66.00;;;;;;4173476;28;20064;-54
2022/04/19 07:50:47;;;;;;;2.55;1.00;;;27.90;66.10;;;;;;4170396;28;20812;-56
2022/04/19 07:52:49;;;;;;;2.70;1.35;;;27.90;66.10;;;;;;4168414;28;20277;-58
2022/04/19 07:54:51;;;;;;;2.37;1.07;;;27.90;66.10;;;;;;4170168;28;20060;-59
2022/04/19 07:56:53;;;;;;;4.57;1.10;;;27.90;66.70;;;;;;4175344;28;21257;-56
2022/04/19 07:58:56;;;;;;;3.03;1.45;;;28.00;66.20;;;;;;4178460;28;20054;-55
2022/04/19 08:00:58;;;;;;;1.60;1.10;;;27.90;66.10;;;;;;4181680;28;20055;-56
2022/04/19 08:03:00;;;;;;;1.87;1.43;;;27.90;66.00;;;;;;4176326;28;20056;-54
2022/04/19 08:05:02;;;;;;;4.27;1.73;;;27.90;65.50;;;;;;4179261;28;20095;-54
2022/04/19 08:07:04;;;;;;;3.83;2.00;;;27.90;65.10;;;;;;4177175;28;20390;-50
2022/04/19 08:09:08;;;;;;;2.47;1.60;;;27.90;65.10;;;;;;4180954;28;20045;-53
2022/04/19 08:11:10;;;;;;;3.88;2.00;;;27.80;64.90;;;;;;4185712;28;20943;-55
2022/04/19 08:13:12;;;;;;;3.67;1.67;;;27.80;65.00;;;;;;4185629;28;20048;-57
2022/04/19 08:15:16;;;;;;;2.72;2.05;;;27.80;65.00;;;;;;4188994;28;20356;-56
2022/04/19 08:17:19;;;;;;;4.68;1.90;;;27.70;65.10;;;;;;4179741;28;20257;-54
2022/04/19 08:19:21;;;;;;;2.92;1.63;;;27.70;65.10;;;;;;4178315;28;20131;-52
2022/04/19 08:21:23;;;;;;;4.82;1.92;;;27.60;65.50;;;;;;4175684;28;20552;-48
2022/04/19 08:23:25;;;;;;;6.13;2.27;;;27.60;64.80;;;;;;4178749;28;20052;-59
2022/04/19 08:25:28;;;;;;;3.55;1.55;;;27.60;65.10;;;;;;4172424;28;21443;-58
2022/04/19 08:27:30;;;;;;;2.97;1.63;;;27.60;66.10;;;;;;4176207;28;20087;-52
2022/04/19 08:29:32;;;;;;;3.00;1.40;;;27.60;65.70;;;;;;4172009;28;20052;-53
2022/04/19 08:31:35;;;;;;;3.63;1.50;;;27.60;66.00;;;;;;4169287;28;20075;-55
2022/04/19 08:33:37;;;;;;;3.67;1.80;;;27.60;66.20;;;;;;4164316;28;20921;-57
2022/04/19 08:35:39;;;;;;;4.88;1.70;;;27.70;66.50;;;;;;4166176;28;20351;-56
2022/04/19 08:37:41;;;;;;;2.60;1.37;;;27.70;66.50;;;;;;4167580;28;20083;-59
2022/04/19 08:39:43;;;;;;;4.10;1.57;;;27.70;66.60;;;;;;4165447;28;20052;-50
2022/04/19 08:41:47;;;;;;;4.63;1.57;;;27.70;66.80;;;;;;4167555;28;20050;-59
2022/04/19 08:43:52;;;;;;;3.25;1.30;;;27.70;66.80;;;;;;4162986;28;20692;-53
2022/04/19 08:45:54;;;;;;;2.50;1.20;;;27.70;67.00;;;;;;4168503;28;20643;-55
2022/04/19 08:47:58;;;;;;;3.37;1.30;;;27.70;67.00;;;;;;4168748;28;20063;-58
2022/04/19 08:50:05;;;;;;;4.15;1.13;;;27.80;67.30;;;;;;4171271;28;20057;-56
2022/04/19 08:52:11;;;;;;;2.13;1.00;;;27.80;67.30;;;;;;4173716;28;20252;-56
2022/04/19 08:58:55;;;;;;;5.70;1.50;;;27.80;66.90;;;;;;4174648;28;20908;-51
2022/04/19 09:00:57;;;;;;;4.40;1.67;;;27.80;66.80;;;;;;4173967;28;20424;-57
2022/04/19 09:03:01;;;;;;;4.18;1.33;;;27.80;66.90;;;;;;4176126;28;20052;-56
2022/04/19 09:05:23;;;;;;;9.18;1.58;;;27.80;66.90;;;;;;4176178;28;20056;-54
2022/04/19 09:07:37;;;;;;;2.75;0.95;;;27.80;66.70;;;;;;4182054;28;20044;-55
2022/04/19 09:09:39;;;;;;;3.45;1.15;;;27.80;66.70;;;;;;4174596;28;20278;-57
2022/04/19 09:11:41;;;;;;;3.67;1.30;;;27.80;66.80;;;;;;4175322;28;20055;-55
2022/04/19 09:13:44;;;;;;;1.40;0.88;;;27.80;66.80;;;;;;4174098;28;20143;-52
2022/04/19 09:15:47;;;;;;;3.03;1.40;;;27.70;66.80;;;;;;4175233;28;20098;-50
2022/04/19 09:17:50;;;;;;;3.13;1.10;;;27.80;66.90;;;;;;4174148;28;20113;-54
2022/04/19 09:19:52;;;;;;;2.92;1.00;;;27.80;67.00;;;;;;4173432;28;20056;-54
2022/04/19 09:21:54;;;;;;;1.85;0.98;;;27.80;67.10;;;;;;4173086;28;20656;-57
2022/04/19 09:23:56;;;;;;;1.37;0.97;;;27.80;67.20;;;;;;4175043;28;20048;-53
2022/04/19 09:26:01;;;;;;;1.95;0.90;;;27.80;67.10;;;;;;4174095;28;20151;-53
2022/04/19 09:28:14;;;;;;;3.22;0.93;;;27.80;67.00;;;;;;4175295;28;20080;-57
2022/04/19 09:30:21;;;;;;;1.92;0.85;;;27.80;67.00;;;;;;4174797;28;20559;-56
2022/04/19 09:32:23;;;;;;;2.28;0.90;;;27.80;67.00;;;;;;4166538;28;20082;-54
2022/04/19 09:34:36;;;;;;;2.17;0.95;;;27.80;67.00;;;;;;4170737;28;20048;-56
2022/04/19 09:36:38;;;;;;;3.20;1.05;;;27.80;67.00;;;;;;4172963;28;20147;-53
2022/04/19 09:38:49;;;;;;;3.40;1.02;;;27.80;67.00;;;;;;4174155;28;20052;-54
2022/04/19 09:40:51;;;;;;;7.25;1.88;;;27.80;67.10;;;;;;4173804;28;20410;-60
2022/04/19 09:42:55;;;;;;;12.63;1.67;;;27.80;67.00;;;;;;4171157;28;20063;-57
2022/04/19 09:44:57;;;;;;;12.98;1.50;;;27.80;67.20;;;;;;4172590;28;20052;-53
2022/04/19 09:47:06;;;;;;;3.93;1.20;;;27.80;67.20;;;;;;4171537;28;20048;-50
2022/04/19 09:49:09;;;;;;;5.68;1.08;;;27.80;67.50;;;;;;4173091;28;20305;-53
2022/04/19 09:51:13;;;;;;;3.28;1.40;;;27.80;67.40;;;;;;4154544;28;20140;-52
2022/04/19 09:53:23;;;;;;;3.58;1.23;;;27.80;67.50;;;;;;4173190;28;20052;-53
2022/04/19 09:55:25;;;;;;;5.45;1.13;;;27.80;67.50;;;;;;4172191;28;20060;-53
2022/04/19 09:57:32;;;;;;;2.63;1.17;;;27.70;67.50;;;;;;4171911;28;20575;-52
2022/04/19 09:59:46;;;;;;;9.07;1.00;;;27.80;67.60;;;;;;4174204;28;20056;-53
2022/04/19 10:08:50;;;;;;;4.07;0.77;;;27.80;67.30;;;;;;4173828;28;20065;-54
2022/04/19 10:10:53;;;;;;;;;;;27.70;67.00;;;;;;4172707;28;20059;-51
2022/04/19 10:12:58;;;;;;;4.03;1.00;;;27.70;67.40;;;;;;4174436;28;19936;-57
2022/04/19 10:15:03;;;;;;;3.13;1.20;;;27.70;67.30;;;;;;4174608;28;20142;-52
2022/04/19 10:17:06;;;;;;;6.22;1.40;;;27.70;67.40;;;;;;4172526;28;20119;-55
2022/04/19 10:19:10;;;;;;;3.22;1.10;;;27.70;67.70;;;;;;4171918;28;20055;-54
2022/04/19 10:21:18;;;;;;;4.85;1.35;;;27.70;67.50;;;;;;4172519;28;20056;-53
2022/04/19 10:23:21;;;;;;;4.60;1.48;;;27.70;67.50;;;;;;4173672;28;20124;-52
2022/04/19 10:25:23;;;;;;;5.20;1.33;;;27.70;67.50;;;;;;4171168;28;20052;-54
2022/04/19 10:27:33;;;;;;;5.30;1.40;;;27.70;67.50;;;;;;4184894;28;20055;-51
2022/04/19 10:29:35;;;;;;;3.75;1.65;;;27.70;67.50;;;;;;4175012;28;20125;-50
2022/04/19 10:31:38;;;;;;;4.63;1.25;;;27.70;67.50;;;;;;4175275;28;20551;-52
2022/04/19 10:33:49;;;;;;;2.42;1.10;;;27.70;67.60;;;;;;4175239;28;20051;-55
2022/04/19 10:36:12;;;;;;;6.72;1.42;;;27.70;67.80;;;;;;4175360;28;20057;-52
2022/04/19 10:38:20;;;;;;;2.95;1.30;;;27.70;67.70;;;;;;4172256;28;20135;-53
2022/04/19 10:40:23;;;;;;;2.75;1.10;;;27.70;67.70;;;;;;4173945;28;20138;-50
2022/04/19 10:42:37;;;;;;;2.78;1.23;;;27.70;67.60;;;;;;4170701;28;20321;-49
2022/04/19 10:44:43;;;;;;;4.50;1.42;;;27.70;67.70;;;;;;4173744;28;20194;-54
2022/04/19 10:46:45;;;;;;;4.10;1.52;;;27.70;67.70;;;;;;4173263;28;20060;-55
2022/04/19 10:49:23;;;;;;;6.72;1.70;;;27.70;66.50;;;;;;4172871;28;20609;-56
2022/04/19 10:51:28;;;;;;;2.20;1.20;;;27.70;66.40;;;;;;4162815;28;20048;-54
2022/04/19 10:53:33;;;;;;;6.10;1.00;;;27.60;66.00;;;;;;4172168;28;20051;-55
2022/04/19 10:55:38;;;;;;;3.90;1.38;;;27.60;65.50;;;;;;4172767;28;20975;-57
2022/04/19 10:58:09;;;;;;;4.10;1.40;;;27.60;65.20;;;;;;4174698;28;20075;-58
2022/04/19 11:00:29;;;;;;;4.63;1.45;;;27.60;65.20;;;;;;4174014;28;20071;-55
2022/04/19 11:02:35;;;;;;;6.68;1.60;;;27.50;64.90;;;;;;4181305;28;20048;-54
2022/04/19 11:04:38;;;;;;;4.05;1.38;;;27.50;65.00;;;;;;4175037;28;20079;-55
2022/04/19 11:06:41;;;;;;;5.60;1.38;;;27.50;64.70;;;;;;4176042;28;20052;-53
2022/04/19 11:08:43;;;;;;;5.07;1.45;;;27.50;64.70;;;;;;4171825;28;20154;-56
2022/04/19 11:10:46;;;;;;;5.88;1.50;;;27.50;64.90;;;;;;4170167;28;20658;-54
2022/04/19 11:13:00;;;;;;;5.88;1.58;;;27.50;64.70;;;;;;4172914;28;20172;-56